sensor_id;sensor_type;location;lat;lon;timestamp;pressure;altitude;pressure_sealevel;temperature;humidity
12178;BME280;6152;48.728;9.256;2023-07-28T00:02:14;96388.06;;;15.94;100.00
12178;BME280;6152;48.728;9.256;2023-07-28T00:04:40;96393.78;;;15.89;100.00
12178;BME280;6152;48.728;9.256;2023-07-28T00:07:06;96400.09;;;15.87;100.00
12178;BME280;6152;48.728;9.256;2023-07-28T00:09:33;96389.91;;;15.84;100.00
12178;BME280;6152;48.728;9.256;2023-07-28T00:12:00;96390.19;;;15.81;100.00
12178;BME280;6152;48.728;9.256;2023-07-28T00:14:27;96385.22;;;15.78;100.00
12178;BME280;6152;48.728;9.256;2023-07-28T00:16:55;96396.69;;;15.77;100.00
12178;BME280;6152;48.728;9.256;2023-07-28T00:19:22;96390.78;;;15.75;100.00
12178;BME280;6152;48.728;9.256;2023-07-28T00:21:48;96404.84;;;15.74;100.00
12178;BME280;6152;48.728;9.256;2023-07-28T00:24:15;96391.72;;;15.74;100.00
12178;BME280;6152;48.728;9.256;2023-07-28T00:26:41;96398.63;;;15.75;100.00
12178;BME280;6152;48.728;9.256;2023-07-28T00:29:07;96396.00;;;15.75;100.00
12178;BME280;6152;48.728;9.256;2023-07-28T00:31:34;96396.84;;;15.75;100.00
12178;BME280;6152;48.728;9.256;2023-07-28T00:34:01;96389.94;;;15.74;100.00
12178;BME280;6152;48.728;9.256;2023-07-28T00:36:28;96389.78;;;15.76;100.00
12178;BME280;6152;48.728;9.256;2023-07-28T00:38:54;96396.69;;;15.77;100.00
12178;BME280;6152;48.728;9.256;2023-07-28T00:41:20;96395.72;;;15.78;100.00
12178;BME280;6152;48.728;9.256;2023-07-28T00:43:46;96395.44;;;15.81;100.00
12178;BME280;6152;48.728;9.256;2023-07-28T00:46:13;96391.69;;;15.83;100.00
12178;BME280;6152;48.728;9.256;2023-07-28T00:48:40;96393.91;;;15.88;100.00
12178;BME280;6152;48.728;9.256;2023-07-28T00:51:08;96390.97;;;15.91;100.00
12178;BME280;6152;48.728;9.256;2023-07-28T00:53:34;96388.22;;;15.92;100.00
12178;BME280;6152;48.728;9.256;2023-07-28T00:56:01;96385.44;;;15.94;100.00
12178;BME280;6152;48.728;9.256;2023-07-28T00:58:29;96390.69;;;15.94;100.00
12178;BME280;6152;48.728;9.256;2023-07-28T01:00:55;96390.69;;;15.94;100.00
12178;BME280;6152;48.728;9.256;2023-07-28T01:03:22;96393.47;;;15.92;100.00
12178;BME280;6152;48.728;9.256;2023-07-28T01:06:13;96393.78;;;15.89;100.00
12178;BME280;6152;48.728;9.256;2023-07-28T01:08:57;96394.84;;;15.87;100.00
12178;BME280;6152;48.728;9.256;2023-07-28T01:11:24;96393.47;;;15.83;100.00
12178;BME280;6152;48.728;9.256;2023-07-28T01:13:50;96393.09;;;15.78;100.00
12178;BME280;6152;48.728;9.256;2023-07-28T01:16:17;96385.53;;;15.75;100.00
12178;BME280;6152;48.728;9.256;2023-07-28T01:18:43;96382.19;;;15.73;100.00
12178;BME280;6152;48.728;9.256;2023-07-28T01:21:17;96380.84;;;15.69;100.00
12178;BME280;6152;48.728;9.256;2023-07-28T01:24:15;96383.06;;;15.63;100.00
12178;BME280;6152;48.728;9.256;2023-07-28T01:26:45;96387.09;;;15.58;100.00
12178;BME280;6152;48.728;9.256;2023-07-28T01:29:13;96386.81;;;15.51;100.00
12178;BME280;6152;48.728;9.256;2023-07-28T01:31:40;96381.97;;;15.47;100.00
12178;BME280;6152;48.728;9.256;2023-07-28T01:34:07;96385.00;;;15.42;100.00
12178;BME280;6152;48.728;9.256;2023-07-28T01:36:33;96384.72;;;15.36;100.00
12178;BME280;6152;48.728;9.256;2023-07-28T01:38:59;96382.53;;;15.31;100.00
12178;BME280;6152;48.728;9.256;2023-07-28T01:41:25;96387.91;;;15.30;100.00
12178;BME280;6152;48.728;9.256;2023-07-28T01:43:51;96383.09;;;15.25;100.00
12178;BME280;6152;48.728;9.256;2023-07-28T01:46:21;96383.38;;;15.22;100.00
12178;BME280;6152;48.728;9.256;2023-07-28T01:48:48;96376.06;;;15.16;100.00
12178;BME280;6152;48.728;9.256;2023-07-28T01:51:14;96375.34;;;15.14;100.00
12178;BME280;6152;48.728;9.256;2023-07-28T01:53:40;96369.56;;;15.10;100.00
12178;BME280;6152;48.728;9.256;2023-07-28T01:56:06;96369.72;;;15.09;100.00
12178;BME280;6152;48.728;9.256;2023-07-28T01:58:32;96365.44;;;15.08;100.00
12178;BME280;6152;48.728;9.256;2023-07-28T02:00:58;96357.84;;;15.05;100.00
12178;BME280;6152;48.728;9.256;2023-07-28T02:03:24;96353.44;;;15.05;100.00
12178;BME280;6152;48.728;9.256;2023-07-28T02:05:50;96349.31;;;15.03;100.00
12178;BME280;6152;48.728;9.256;2023-07-28T02:08:16;96346.94;;;15.00;100.00
12178;BME280;6152;48.728;9.256;2023-07-28T02:10:44;96340.19;;;14.97;100.00
12178;BME280;6152;48.728;9.256;2023-07-28T02:13:10;96340.59;;;14.93;100.00
12178;BME280;6152;48.728;9.256;2023-07-28T02:15:36;96340.09;;;14.89;100.00
12178;BME280;6152;48.728;9.256;2023-07-28T02:18:02;96333.47;;;14.85;100.00
12178;BME280;6152;48.728;9.256;2023-07-28T02:20:28;96337.31;;;14.81;100.00
12178;BME280;6152;48.728;9.256;2023-07-28T02:22:54;96336.50;;;14.81;100.00
12178;BME280;6152;48.728;9.256;2023-07-28T02:25:21;96340.34;;;14.86;100.00
12178;BME280;6152;48.728;9.256;2023-07-28T02:27:47;96344.78;;;14.86;100.00
12178;BME280;6152;48.728;9.256;2023-07-28T02:30:13;96349.31;;;14.84;100.00
12178;BME280;6152;48.728;9.256;2023-07-28T02:32:39;96354.97;;;14.89;100.00
12178;BME280;6152;48.728;9.256;2023-07-28T02:35:05;96345.59;;;14.96;100.00
12178;BME280;6152;48.728;9.256;2023-07-28T02:37:32;96354.81;;;15.00;100.00
12178;BME280;6152;48.728;9.256;2023-07-28T02:39:58;96362.66;;;15.00;100.00
12178;BME280;6152;48.728;9.256;2023-07-28T02:42:24;96360.88;;;15.00;100.00
12178;BME280;6152;48.728;9.256;2023-07-28T02:44:51;96359.25;;;14.99;100.00
12178;BME280;6152;48.728;9.256;2023-07-28T02:47:17;96362.66;;;15.00;100.00
12178;BME280;6152;48.728;9.256;2023-07-28T02:49:43;96366.56;;;14.96;100.00
12178;BME280;6152;48.728;9.256;2023-07-28T02:52:09;96359.66;;;14.95;100.00
12178;BME280;6152;48.728;9.256;2023-07-28T02:54:35;96365.84;;;14.94;100.00
12178;BME280;6152;48.728;9.256;2023-07-28T02:57:01;96374.53;;;14.94;100.00
12178;BME280;6152;48.728;9.256;2023-07-28T02:59:27;96378.94;;;14.94;100.00
12178;BME280;6152;48.728;9.256;2023-07-28T03:01:54;96382.41;;;14.94;100.00
12178;BME280;6152;48.728;9.256;2023-07-28T03:04:20;96385.69;;;14.96;100.00
12178;BME280;6152;48.728;9.256;2023-07-28T03:06:46;96384.63;;;14.99;100.00
12178;BME280;6152;48.728;9.256;2023-07-28T03:09:13;96392.47;;;14.99;100.00
12178;BME280;6152;48.728;9.256;2023-07-28T03:11:44;96396.63;;;15.01;100.00
12178;BME280;6152;48.728;9.256;2023-07-28T03:14:10;96398.00;;;15.05;100.00
12178;BME280;6152;48.728;9.256;2023-07-28T03:16:39;96396.88;;;15.08;100.00
12178;BME280;6152;48.728;9.256;2023-07-28T03:19:05;96398.94;;;15.14;100.00
12178;BME280;6152;48.728;9.256;2023-07-28T03:21:31;96418.00;;;15.16;100.00
12178;BME280;6152;48.728;9.256;2023-07-28T03:23:58;96416.75;;;15.20;100.00
12178;BME280;6152;48.728;9.256;2023-07-28T03:26:24;96408.47;;;15.25;100.00
12178;BME280;6152;48.728;9.256;2023-07-28T03:28:50;96405.44;;;15.29;100.00
12178;BME280;6152;48.728;9.256;2023-07-28T03:31:16;96410.41;;;15.32;100.00
12178;BME280;6152;48.728;9.256;2023-07-28T03:33:43;96407.50;;;15.35;100.00
12178;BME280;6152;48.728;9.256;2023-07-28T03:36:09;96411.63;;;15.38;100.00
12178;BME280;6152;48.728;9.256;2023-07-28T03:38:35;96409.72;;;15.40;100.00
12178;BME280;6152;48.728;9.256;2023-07-28T03:41:01;96416.47;;;15.42;100.00
12178;BME280;6152;48.728;9.256;2023-07-28T03:43:27;96415.34;;;15.45;100.00
12178;BME280;6152;48.728;9.256;2023-07-28T03:45:53;96428.34;;;15.46;100.00
12178;BME280;6152;48.728;9.256;2023-07-28T03:48:19;96426.41;;;15.48;100.00
12178;BME280;6152;48.728;9.256;2023-07-28T03:50:45;96424.50;;;15.50;100.00
12178;BME280;6152;48.728;9.256;2023-07-28T03:53:11;96429.47;;;15.53;100.00
12178;BME280;6152;48.728;9.256;2023-07-28T03:55:37;96434.41;;;15.56;100.00
12178;BME280;6152;48.728;9.256;2023-07-28T03:58:04;96430.84;;;15.57;100.00
12178;BME280;6152;48.728;9.256;2023-07-28T04:00:30;96434.13;;;15.69;100.00
12178;BME280;6152;48.728;9.256;2023-07-28T04:02:56;96445.16;;;15.73;100.00
12178;BME280;6152;48.728;9.256;2023-07-28T04:05:22;96455.13;;;15.79;100.00
12178;BME280;6152;48.728;9.256;2023-07-28T04:07:48;96452.34;;;15.80;100.00
12178;BME280;6152;48.728;9.256;2023-07-28T04:10:14;96458.13;;;15.84;100.00
12178;BME280;6152;48.728;9.256;2023-07-28T04:12:40;96451.22;;;15.83;100.00
12178;BME280;6152;48.728;9.256;2023-07-28T04:15:07;96448.47;;;15.84;100.00
12178;BME280;6152;48.728;9.256;2023-07-28T04:17:33;96448.34;;;15.86;100.00
12178;BME280;6152;48.728;9.256;2023-07-28T04:19:59;96447.06;;;15.90;100.00
12178;BME280;6152;48.728;9.256;2023-07-28T04:22:26;96447.06;;;15.90;100.00
12178;BME280;6152;48.728;9.256;2023-07-28T04:24:52;96437.25;;;15.92;100.00
12178;BME280;6152;48.728;9.256;2023-07-28T04:27:19;96432.69;;;15.94;100.00
12178;BME280;6152;48.728;9.256;2023-07-28T04:29:46;96437.66;;;15.97;100.00
12178;BME280;6152;48.728;9.256;2023-07-28T04:32:12;96431.31;;;15.99;100.00
12178;BME280;6152;48.728;9.256;2023-07-28T04:34:38;96442.34;;;16.03;100.00
12178;BME280;6152;48.728;9.256;2023-07-28T04:37:04;96430.56;;;16.07;100.00
12178;BME280;6152;48.728;9.256;2023-07-28T04:39:30;96422.13;;;16.13;100.00
12178;BME280;6152;48.728;9.256;2023-07-28T04:41:57;96432.06;;;16.19;100.00
12178;BME280;6152;48.728;9.256;2023-07-28T04:44:23;96424.56;;;16.24;100.00
12178;BME280;6152;48.728;9.256;2023-07-28T04:46:49;96425.25;;;16.26;100.00
12178;BME280;6152;48.728;9.256;2023-07-28T04:49:15;96419.06;;;16.27;100.00
12178;BME280;6152;48.728;9.256;2023-07-28T04:51:41;96421.38;;;16.30;100.00
12178;BME280;6152;48.728;9.256;2023-07-28T04:54:07;96428.13;;;16.33;100.00
12178;BME280;6152;48.728;9.256;2023-07-28T04:56:33;96427.84;;;16.36;100.00
12178;BME280;6152;48.728;9.256;2023-07-28T04:58:59;96430.59;;;16.34;100.00
12178;BME280;6152;48.728;9.256;2023-07-28T05:01:26;96430.59;;;16.34;100.00
12178;BME280;6152;48.728;9.256;2023-07-28T05:03:52;96424.53;;;16.34;100.00
12178;BME280;6152;48.728;9.256;2023-07-28T05:06:18;96430.47;;;16.36;100.00
12178;BME280;6152;48.728;9.256;2023-07-28T05:08:44;96429.88;;;16.42;100.00
12178;BME280;6152;48.728;9.256;2023-07-28T05:11:10;96426.41;;;16.41;100.00
12178;BME280;6152;48.728;9.256;2023-07-28T05:13:36;96435.00;;;16.43;100.00
12178;BME280;6152;48.728;9.256;2023-07-28T05:16:02;96426.16;;;16.44;100.00
12178;BME280;6152;48.728;9.256;2023-07-28T05:18:29;96428.09;;;16.42;100.00
12178;BME280;6152;48.728;9.256;2023-07-28T05:20:55;96442.19;;;16.41;100.00
12178;BME280;6152;48.728;9.256;2023-07-28T05:23:21;96443.19;;;16.40;100.00
12178;BME280;6152;48.728;9.256;2023-07-28T05:25:47;96446.09;;;16.37;100.00
12178;BME280;6152;48.728;9.256;2023-07-28T05:28:14;96448.97;;;16.34;100.00
12178;BME280;6152;48.728;9.256;2023-07-28T05:30:40;96439.47;;;16.33;100.00
12178;BME280;6152;48.728;9.256;2023-07-28T05:33:06;96448.19;;;16.34;100.00
12178;BME280;6152;48.728;9.256;2023-07-28T05:35:32;96449.97;;;16.33;100.00
12178;BME280;6152;48.728;9.256;2023-07-28T05:37:59;96456.72;;;16.36;100.00
12178;BME280;6152;48.728;9.256;2023-07-28T05:40:25;96451.34;;;16.37;100.00
12178;BME280;6152;48.728;9.256;2023-07-28T05:42:51;96459.91;;;16.39;100.00
12178;BME280;6152;48.728;9.256;2023-07-28T05:45:17;96450.75;;;16.43;100.00
12178;BME280;6152;48.728;9.256;2023-07-28T05:47:43;96449.34;;;16.49;100.00
12178;BME280;6152;48.728;9.256;2023-07-28T05:50:09;96457.63;;;16.54;100.00
12178;BME280;6152;48.728;9.256;2023-07-28T05:52:35;96465.09;;;16.58;100.00
12178;BME280;6152;48.728;9.256;2023-07-28T05:55:02;96462.84;;;16.63;100.00
12178;BME280;6152;48.728;9.256;2023-07-28T05:57:28;96456.03;;;16.71;100.00
12178;BME280;6152;48.728;9.256;2023-07-28T05:59:54;96458.25;;;16.75;100.00
12178;BME280;6152;48.728;9.256;2023-07-28T06:02:20;96463.34;;;16.77;100.00
12178;BME280;6152;48.728;9.256;2023-07-28T06:04:46;96468.28;;;16.80;100.00
12178;BME280;6152;48.728;9.256;2023-07-28T06:07:12;96472.59;;;16.81;100.00
12178;BME280;6152;48.728;9.256;2023-07-28T06:09:38;96480.88;;;16.86;100.00
12178;BME280;6152;48.728;9.256;2023-07-28T06:12:05;96477.66;;;16.92;100.00
12178;BME280;6152;48.728;9.256;2023-07-28T06:14:31;96479.81;;;16.96;100.00
12178;BME280;6152;48.728;9.256;2023-07-28T06:16:57;96480.22;;;17.01;100.00
12178;BME280;6152;48.728;9.256;2023-07-28T06:19:23;96487.66;;;17.06;100.00
12178;BME280;6152;48.728;9.256;2023-07-28T06:21:53;96483.06;;;17.08;100.00
12178;BME280;6152;48.728;9.256;2023-07-28T06:24:19;96486.41;;;17.10;100.00
12178;BME280;6152;48.728;9.256;2023-07-28T06:26:46;96484.13;;;17.15;100.00
12178;BME280;6152;48.728;9.256;2023-07-28T06:29:12;96490.47;;;17.22;100.00
12178;BME280;6152;48.728;9.256;2023-07-28T06:31:38;96488.34;;;17.26;100.00
12178;BME280;6152;48.728;9.256;2023-07-28T06:34:04;96489.84;;;17.28;100.00
12178;BME280;6152;48.728;9.256;2023-07-28T06:36:30;96489.25;;;17.34;100.00
12178;BME280;6152;48.728;9.256;2023-07-28T06:38:57;96489.50;;;17.41;100.00
12178;BME280;6152;48.728;9.256;2023-07-28T06:41:23;96507.16;;;17.48;100.00
12178;BME280;6152;48.728;9.256;2023-07-28T06:43:49;96510.16;;;17.53;100.00
12178;BME280;6152;48.728;9.256;2023-07-28T06:46:15;96510.16;;;17.53;100.00
12178;BME280;6152;48.728;9.256;2023-07-28T06:48:41;96518.72;;;17.55;100.00
12178;BME280;6152;48.728;9.256;2023-07-28T06:51:07;96515.16;;;17.56;100.00
12178;BME280;6152;48.728;9.256;2023-07-28T06:53:33;96519.72;;;17.54;100.00
12178;BME280;6152;48.728;9.256;2023-07-28T06:56:00;96523.97;;;17.55;100.00
12178;BME280;6152;48.728;9.256;2023-07-28T06:58:27;96506.03;;;17.51;100.00
12178;BME280;6152;48.728;9.256;2023-07-28T07:00:53;96508.81;;;17.49;100.00
12178;BME280;6152;48.728;9.256;2023-07-28T07:03:21;96514.06;;;17.49;100.00
12178;BME280;6152;48.728;9.256;2023-07-28T07:05:49;96518.44;;;17.58;100.00
12178;BME280;6152;48.728;9.256;2023-07-28T07:08:15;96513.13;;;17.68;100.00
12178;BME280;6152;48.728;9.256;2023-07-28T07:10:50;96517.63;;;17.76;100.00
12178;BME280;6152;48.728;9.256;2023-07-28T07:13:16;96522.44;;;17.80;100.00
12178;BME280;6152;48.728;9.256;2023-07-28T07:15:42;96521.03;;;17.86;100.00
12178;BME280;6152;48.728;9.256;2023-07-28T07:18:09;96526.94;;;17.88;100.00
12178;BME280;6152;48.728;9.256;2023-07-28T07:20:36;96524.31;;;17.88;100.00
12178;BME280;6152;48.728;9.256;2023-07-28T07:23:02;96527.91;;;17.87;100.00
12178;BME280;6152;48.728;9.256;2023-07-28T07:25:28;96531.31;;;17.79;100.00
12178;BME280;6152;48.728;9.256;2023-07-28T07:27:54;96529.88;;;17.85;100.00
12178;BME280;6152;48.728;9.256;2023-07-28T07:30:21;96543.09;;;17.93;100.00
12178;BME280;6152;48.728;9.256;2023-07-28T07:32:47;96534.53;;;17.91;100.00
12178;BME280;6152;48.728;9.256;2023-07-28T07:35:14;96532.66;;;18.01;100.00
12178;BME280;6152;48.728;9.256;2023-07-28T07:37:41;96535.69;;;18.14;100.00
12178;BME280;6152;48.728;9.256;2023-07-28T07:40:07;96528.69;;;18.23;100.00
12178;BME280;6152;48.728;9.256;2023-07-28T07:42:48;96531.22;;;18.32;100.00
12178;BME280;6152;48.728;9.256;2023-07-28T07:45:14;96532.97;;;18.49;100.00
12178;BME280;6152;48.728;9.256;2023-07-28T07:47:41;96533.59;;;18.61;100.00
12178;BME280;6152;48.728;9.256;2023-07-28T07:50:09;96539.69;;;18.61;100.00
12178;BME280;6152;48.728;9.256;2023-07-28T07:52:36;96530.94;;;18.61;100.00
12178;BME280;6152;48.728;9.256;2023-07-28T07:55:03;96541.72;;;18.76;100.00
12178;BME280;6152;48.728;9.256;2023-07-28T07:57:30;96543.75;;;18.82;100.00
12178;BME280;6152;48.728;9.256;2023-07-28T07:59:59;96547.09;;;18.92;100.00
12178;BME280;6152;48.728;9.256;2023-07-28T08:02:25;96548.72;;;18.93;100.00
12178;BME280;6152;48.728;9.256;2023-07-28T08:04:54;96550.34;;;18.86;100.00
12178;BME280;6152;48.728;9.256;2023-07-28T08:07:21;96552.03;;;18.95;100.00
12178;BME280;6152;48.728;9.256;2023-07-28T08:09:49;96550.38;;;18.94;100.00
12178;BME280;6152;48.728;9.256;2023-07-28T08:12:15;96555.66;;;18.94;100.00
12178;BME280;6152;48.728;9.256;2023-07-28T08:14:41;96567.59;;;19.06;100.00
12178;BME280;6152;48.728;9.256;2023-07-28T08:17:08;96568.94;;;19.18;100.00
12178;BME280;6152;48.728;9.256;2023-07-28T08:19:35;96568.06;;;19.43;100.00
12178;BME280;6152;48.728;9.256;2023-07-28T08:22:02;96567.00;;;19.78;100.00
12178;BME280;6152;48.728;9.256;2023-07-28T08:24:31;96575.09;;;20.09;100.00
12178;BME280;6152;48.728;9.256;2023-07-28T08:26:58;96580.09;;;20.36;100.00
12178;BME280;6152;48.728;9.256;2023-07-28T08:29:24;96573.06;;;20.76;100.00
12178;BME280;6152;48.728;9.256;2023-07-28T08:31:51;96568.81;;;21.22;100.00
12178;BME280;6152;48.728;9.256;2023-07-28T08:34:17;96567.16;;;21.59;100.00
12178;BME280;6152;48.728;9.256;2023-07-28T08:36:43;96568.25;;;22.19;100.00
12178;BME280;6152;48.728;9.256;2023-07-28T08:39:09;96580.59;;;22.72;100.00
12178;BME280;6152;48.728;9.256;2023-07-28T08:41:36;96579.22;;;23.05;100.00
12178;BME280;6152;48.728;9.256;2023-07-28T08:44:03;96588.19;;;23.48;100.00
12178;BME280;6152;48.728;9.256;2023-07-28T08:46:29;96584.75;;;23.69;100.00
12178;BME280;6152;48.728;9.256;2023-07-28T08:48:56;96589.16;;;23.97;100.00
12178;BME280;6152;48.728;9.256;2023-07-28T08:51:25;96595.63;;;23.88;100.00
12178;BME280;6152;48.728;9.256;2023-07-28T08:53:51;96594.97;;;23.86;100.00
12178;BME280;6152;48.728;9.256;2023-07-28T08:56:17;96596.66;;;23.73;100.00
12178;BME280;6152;48.728;9.256;2023-07-28T08:58:45;96604.84;;;23.56;100.00
12178;BME280;6152;48.728;9.256;2023-07-28T09:01:12;96602.19;;;23.12;100.00
12178;BME280;6152;48.728;9.256;2023-07-28T09:03:41;96597.44;;;22.79;100.00
12178;BME280;6152;48.728;9.256;2023-07-28T09:06:08;96590.50;;;22.92;100.00
12178;BME280;6152;48.728;9.256;2023-07-28T09:08:37;96597.63;;;23.50;100.00
12178;BME280;6152;48.728;9.256;2023-07-28T09:11:04;96597.00;;;24.97;100.00
12178;BME280;6152;48.728;9.256;2023-07-28T09:13:40;96594.13;;;25.60;100.00
12178;BME280;6152;48.728;9.256;2023-07-28T09:16:19;96595.28;;;25.51;100.00
12178;BME280;6152;48.728;9.256;2023-07-28T09:18:45;96600.00;;;25.15;100.00
12178;BME280;6152;48.728;9.256;2023-07-28T09:21:21;96595.06;;;25.12;100.00
12178;BME280;6152;48.728;9.256;2023-07-28T09:23:50;96592.50;;;24.97;100.00
12178;BME280;6152;48.728;9.256;2023-07-28T09:26:17;96594.53;;;24.68;100.00
12178;BME280;6152;48.728;9.256;2023-07-28T09:28:43;96603.56;;;24.45;100.00
12178;BME280;6152;48.728;9.256;2023-07-28T09:31:10;96597.16;;;24.40;100.00
12178;BME280;6152;48.728;9.256;2023-07-28T09:33:37;96591.03;;;24.39;100.00
12178;BME280;6152;48.728;9.256;2023-07-28T09:36:13;96598.28;;;24.80;100.00
12178;BME280;6152;48.728;9.256;2023-07-28T09:38:42;96596.53;;;24.87;100.00
12178;BME280;6152;48.728;9.256;2023-07-28T09:41:09;96597.94;;;24.83;100.00
12178;BME280;6152;48.728;9.256;2023-07-28T09:43:40;96593.09;;;25.27;100.00
12178;BME280;6152;48.728;9.256;2023-07-28T09:46:09;96593.03;;;26.16;100.00
12178;BME280;6152;48.728;9.256;2023-07-28T09:48:38;96592.25;;;26.35;100.00
12178;BME280;6152;48.728;9.256;2023-07-28T09:51:12;96589.81;;;26.33;100.00
12178;BME280;6152;48.728;9.256;2023-07-28T09:53:44;96588.16;;;26.45;100.00
12178;BME280;6152;48.728;9.256;2023-07-28T09:56:15;96586.41;;;25.79;100.00
12178;BME280;6152;48.728;9.256;2023-07-28T09:58:51;96588.44;;;25.90;100.00
12178;BME280;6152;48.728;9.256;2023-07-28T10:01:19;96595.97;;;26.40;100.00
12178;BME280;6152;48.728;9.256;2023-07-28T10:03:47;96593.50;;;26.58;100.00
12178;BME280;6152;48.728;9.256;2023-07-28T10:06:15;96584.69;;;27.75;96.21
12178;BME280;6152;48.728;9.256;2023-07-28T10:08:45;96591.56;;;27.95;91.28
12178;BME280;6152;48.728;9.256;2023-07-28T10:11:16;96586.91;;;27.20;93.99
12178;BME280;6152;48.728;9.256;2023-07-28T10:13:44;96588.78;;;26.74;100.00
12178;BME280;6152;48.728;9.256;2023-07-28T10:16:11;96593.09;;;26.48;100.00
12178;BME280;6152;48.728;9.256;2023-07-28T10:18:37;96593.91;;;26.36;100.00
12178;BME280;6152;48.728;9.256;2023-07-28T10:21:05;96598.13;;;26.04;100.00
12178;BME280;6152;48.728;9.256;2023-07-28T10:23:34;96607.03;;;25.57;100.00
12178;BME280;6152;48.728;9.256;2023-07-28T10:26:04;96604.22;;;24.75;100.00
12178;BME280;6152;48.728;9.256;2023-07-28T10:28:38;96606.88;;;24.47;100.00
12178;BME280;6152;48.728;9.256;2023-07-28T10:31:10;96611.34;;;24.47;100.00
12178;BME280;6152;48.728;9.256;2023-07-28T10:33:45;96609.72;;;24.25;100.00
12178;BME280;6152;48.728;9.256;2023-07-28T10:36:13;96610.03;;;24.00;100.00
12178;BME280;6152;48.728;9.256;2023-07-28T10:38:40;96616.94;;;23.95;100.00
12178;BME280;6152;48.728;9.256;2023-07-28T10:43:36;96608.63;;;23.83;100.00
12178;BME280;6152;48.728;9.256;2023-07-28T10:46:03;96607.88;;;23.89;100.00
12178;BME280;6152;48.728;9.256;2023-07-28T10:48:30;96610.78;;;23.58;100.00
12178;BME280;6152;48.728;9.256;2023-07-28T10:50:56;96611.69;;;23.65;100.00
12178;BME280;6152;48.728;9.256;2023-07-28T10:53:22;96607.66;;;23.70;100.00
12178;BME280;6152;48.728;9.256;2023-07-28T10:55:48;96607.44;;;23.86;100.00
12178;BME280;6152;48.728;9.256;2023-07-28T10:58:15;96608.53;;;23.41;100.00
12178;BME280;6152;48.728;9.256;2023-07-28T11:00:41;96602.47;;;23.61;100.00
12178;BME280;6152;48.728;9.256;2023-07-28T11:03:09;96604.09;;;23.62;100.00
12178;BME280;6152;48.728;9.256;2023-07-28T11:05:36;96609.53;;;23.90;100.00
12178;BME280;6152;48.728;9.256;2023-07-28T11:08:03;96609.03;;;24.01;100.00
12178;BME280;6152;48.728;9.256;2023-07-28T11:10:33;96617.13;;;24.29;100.00
12178;BME280;6152;48.728;9.256;2023-07-28T11:13:03;96614.31;;;24.58;100.00
12178;BME280;6152;48.728;9.256;2023-07-28T11:15:29;96605.94;;;24.83;100.00
12178;BME280;6152;48.728;9.256;2023-07-28T11:17:55;96608.44;;;24.91;100.00
12178;BME280;6152;48.728;9.256;2023-07-28T11:20:26;96611.13;;;25.25;99.57
12178;BME280;6152;48.728;9.256;2023-07-28T11:22:58;96619.59;;;25.35;97.88
12178;BME280;6152;48.728;9.256;2023-07-28T11:25:26;96607.81;;;25.51;97.16
12178;BME280;6152;48.728;9.256;2023-07-28T11:27:53;96604.41;;;25.77;93.34
12178;BME280;6152;48.728;9.256;2023-07-28T11:30:21;96606.44;;;25.61;90.48
12178;BME280;6152;48.728;9.256;2023-07-28T11:32:52;96611.16;;;25.32;91.70
12178;BME280;6152;48.728;9.256;2023-07-28T11:35:21;96602.19;;;25.39;94.01
12178;BME280;6152;48.728;9.256;2023-07-28T11:37:50;96598.28;;;25.83;92.91
12178;BME280;6152;48.728;9.256;2023-07-28T11:40:19;96604.59;;;26.29;92.93
12178;BME280;6152;48.728;9.256;2023-07-28T11:42:54;96596.38;;;26.77;84.54
12178;BME280;6152;48.728;9.256;2023-07-28T11:45:21;96601.72;;;26.63;85.75
12178;BME280;6152;48.728;9.256;2023-07-28T11:48:00;96611.16;;;26.73;85.51
12178;BME280;6152;48.728;9.256;2023-07-28T11:50:30;96605.19;;;26.18;86.47
12178;BME280;6152;48.728;9.256;2023-07-28T11:52:59;96609.50;;;26.26;89.59
12178;BME280;6152;48.728;9.256;2023-07-28T11:55:26;96602.56;;;25.30;92.28
12178;BME280;6152;48.728;9.256;2023-07-28T11:57:53;96596.34;;;25.16;97.39
12178;BME280;6152;48.728;9.256;2023-07-28T12:00:24;96612.44;;;24.80;100.00
12178;BME280;6152;48.728;9.256;2023-07-28T12:03:07;96620.88;;;24.62;100.00
12178;BME280;6152;48.728;9.256;2023-07-28T12:05:38;96623.94;;;24.38;100.00
12178;BME280;6152;48.728;9.256;2023-07-28T12:08:04;96620.38;;;24.10;100.00
12178;BME280;6152;48.728;9.256;2023-07-28T12:10:31;96618.44;;;23.83;100.00
12178;BME280;6152;48.728;9.256;2023-07-28T12:13:03;96632.63;;;23.54;100.00
12178;BME280;6152;48.728;9.256;2023-07-28T12:15:30;96639.47;;;23.19;100.00
12178;BME280;6152;48.728;9.256;2023-07-28T12:18:14;96624.78;;;22.94;100.00
12178;BME280;6152;48.728;9.256;2023-07-28T12:20:58;96623.91;;;22.64;100.00
12178;BME280;6152;48.728;9.256;2023-07-28T12:23:25;96628.41;;;22.41;100.00
12178;BME280;6152;48.728;9.256;2023-07-28T12:25:52;96618.75;;;22.25;100.00
12178;BME280;6152;48.728;9.256;2023-07-28T12:28:21;96620.25;;;22.42;100.00
12178;BME280;6152;48.728;9.256;2023-07-28T12:30:47;96612.25;;;22.50;100.00
12178;BME280;6152;48.728;9.256;2023-07-28T12:33:18;96608.75;;;22.73;100.00
12178;BME280;6152;48.728;9.256;2023-07-28T12:35:44;96616.91;;;23.00;100.00
12178;BME280;6152;48.728;9.256;2023-07-28T12:38:10;96612.72;;;23.21;100.00
12178;BME280;6152;48.728;9.256;2023-07-28T12:40:36;96610.00;;;23.43;100.00
12178;BME280;6152;48.728;9.256;2023-07-28T12:43:03;96611.91;;;23.49;100.00
12178;BME280;6152;48.728;9.256;2023-07-28T12:45:30;96611.19;;;23.41;100.00
12178;BME280;6152;48.728;9.256;2023-07-28T12:47:56;96612.91;;;23.48;100.00
12178;BME280;6152;48.728;9.256;2023-07-28T12:50:23;96610.78;;;23.58;100.00
12178;BME280;6152;48.728;9.256;2023-07-28T12:52:50;96615.31;;;23.79;100.00
12178;BME280;6152;48.728;9.256;2023-07-28T12:55:17;96621.66;;;23.78;100.00
12178;BME280;6152;48.728;9.256;2023-07-28T12:57:44;96616.94;;;23.95;100.00
12178;BME280;6152;48.728;9.256;2023-07-28T13:00:11;96620.13;;;24.05;100.00
12178;BME280;6152;48.728;9.256;2023-07-28T13:02:43;96615.13;;;23.95;100.00
12178;BME280;6152;48.728;9.256;2023-07-28T13:05:10;96611.44;;;23.96;100.00